Terminal Aerodrome Forecast
Issued by NWS

Home | Current Version | Previous Version | Text Only | Print | Product List | Glossary On
Versions: 1 2 3 4 5 6 7 8 9 10
613
FTUS43 KMPX 232320
TAFRWF
TAF
KRWF 232320Z 2400/2424 18011KT P6SM FEW250
     FM240500 15010KT P6SM SCT250
     FM241300 16015G23KT P6SM BKN200
     FM241800 17020G31KT P6SM BKN200
     FM242300 19013G21KT P6SM BKN050=

USA.gov is the U.S. government's official web portal to all federal, state and local government web resources and services.